Time;durP1;ratioP1;P1;durP2;ratioP2;P2;SDS_P1;SDS_P2;PMS_P1;PMS_P2;Temp;Humidity;BMP_temperature;BMP_pressure;BME280_temperature;BME280_humidity;BME280_pressure;Samples;Min_cycle;Max_cycle;Signal;HPM_P1;HPM_P2
2022/11/27 00:00:58;;;;;;;;;;;;;;;4.74;100.00;102435.41;2098186;28;34696;-82
2022/11/27 00:02:02;;;;;;;;;;;;;;;4.72;100.00;102439.75;2097592;28;37098;-82
2022/11/27 00:03:04;;;;;;;;;;;;;;;4.74;100.00;102438.06;2097538;28;37468;-82
2022/11/27 00:04:07;;;;;;;;;;;;;;;4.71;100.00;102433.56;2097712;28;40329;-82
2022/11/27 00:05:09;;;;;;;;;;;;;;;4.71;100.00;102428.25;2098558;28;20762;-82
2022/11/27 00:06:14;;;;;;;;;;;;;;;4.73;100.00;102425.63;2098467;28;35753;-82
2022/11/27 00:07:16;;;;;;;;;;;;;;;4.71;100.00;102427.34;2098476;28;34994;-82
2022/11/27 00:08:17;;;;;;;;;;;;;;;4.68;100.00;102421.97;2098694;28;20030;-82
2022/11/27 00:09:19;;;;;;;;;;;;;;;4.70;100.00;102420.25;2097617;28;41885;-82
2022/11/27 00:10:20;;;;;;;;;;;;;;;4.70;100.00;102412.28;2097478;28;39736;-82
2022/11/27 00:11:24;;;;;;;;;;;;;;;4.73;100.00;102412.38;2098079;28;37998;-82
2022/11/27 00:12:26;;;;;;;;;;;;;;;4.70;100.00;102420.25;2097941;28;34722;-81
2022/11/27 00:13:27;;;;;;;;;;;;;;;4.69;100.00;102415.81;2098208;28;34601;-82
2022/11/27 00:14:29;;;;;;;;;;;;;;;4.70;100.00;102423.81;2098695;28;19967;-82
2022/11/27 00:15:30;;;;;;;;;;;;;;;4.71;100.00;102430.91;2098390;28;37690;-82
2022/11/27 00:16:32;;;;;;;;;;;;;;;4.69;100.00;102424.66;2098146;28;33405;-82
2022/11/27 00:17:34;;;;;;;;;;;;;;;4.69;100.00;102435.28;2098087;28;37594;-81
2022/11/27 00:18:35;;;;;;;;;;;;;;;4.69;100.00;102429.09;2098068;28;34230;-82
2022/11/27 00:19:38;;;;;;;;;;;;;;;4.68;100.00;102433.47;2098812;28;19920;-81
2022/11/27 00:20:39;;;;;;;;;;;;;;;4.70;100.00;102444.13;2098113;28;31264;-82
2022/11/27 00:21:41;;;;;;;;;;;;;;;4.72;100.00;102434.44;2098087;28;31501;-82
2022/11/27 00:22:42;;;;;;;;;;;;;;;4.72;100.00;102435.38;2098023;28;34651;-81
2022/11/27 00:23:44;;;;;;;;;;;;;;;4.73;100.00;102438.91;2097314;28;39307;-82
2022/11/27 00:24:46;;;;;;;;;;;;;;;4.72;100.00;102435.38;2098071;28;36519;-82
2022/11/27 00:25:51;;;;;;;;;;;;;;;4.74;100.00;102430.09;2098012;28;36398;-82
2022/11/27 00:26:53;;;;;;;;;;;;;;;4.75;100.00;102431.88;2098535;28;19923;-82
2022/11/27 00:27:55;;;;;;;;;;;;;;;4.73;100.00;102434.47;2089112;28;19925;-82
2022/11/27 00:28:58;;;;;;;;;;;;;;;4.74;100.00;102430.09;2089040;28;36419;-82
2022/11/27 00:29:59;;;;;;;;;;;;;;;4.73;100.00;102433.59;2097986;28;19928;-82
2022/11/27 00:31:04;;;;;;;;;;;;;;;4.71;100.00;102428.25;2098276;28;30562;-82
2022/11/27 00:32:07;;;;;;;;;;;;;;;4.74;100.00;102427.44;2098911;28;20082;-82
2022/11/27 00:33:08;;;;;;;;;;;;;;;4.72;100.00;102415.88;2098309;28;31021;-81
2022/11/27 00:34:10;;;;;;;;;;;;;;;4.69;100.00;102422.00;2097440;28;39319;-81
2022/11/27 00:35:12;;;;;;;;;;;;;;;4.67;100.00;102418.44;2098614;28;19921;-80
2022/11/27 00:36:14;;;;;;;;;;;;;;;4.69;100.00;102421.13;2098521;28;31685;-81
2022/11/27 00:37:16;;;;;;;;;;;;;;;4.68;100.00;102408.69;2098390;28;35048;-81
2022/11/27 00:38:19;;;;;;;;;;;;;;;4.68;100.00;102416.66;2098548;28;31901;-81
2022/11/27 00:39:23;;;;;;;;;;;;;;;4.69;100.00;102405.22;2097966;28;37389;-81
2022/11/27 00:40:25;;;;;;;;;;;;;;;4.69;100.00;102406.09;2098430;28;34273;-81
2022/11/27 00:41:28;;;;;;;;;;;;;;;4.69;100.00;102407.84;2098738;28;31461;-81
2022/11/27 00:42:30;;;;;;;;;;;;;;;4.69;100.00;102411.41;2097419;28;37638;-81
2022/11/27 00:43:33;;;;;;;;;;;;;;;4.73;100.00;102404.41;2098911;28;20813;-81
2022/11/27 00:44:44;;;;;;;;;;;;;;;4.73;100.00;102404.41;2099068;28;21384;-81
2022/11/27 00:45:49;;;;;;;;;;;;;;;4.72;100.00;102406.19;2098546;28;32002;-81
2022/11/27 00:46:50;;;;;;;;;;;;;;;4.71;100.00;102414.09;2098358;28;37256;-81
2022/11/27 00:47:52;;;;;;;;;;;;;;;4.69;100.00;102407.84;2100227;28;33906;-81
2022/11/27 00:48:55;;;;;;;;;;;;;;;4.69;100.00;102419.34;2098801;28;37284;-81
2022/11/27 00:49:57;;;;;;;;;;;;;;;4.68;100.00;102421.97;2098979;28;31578;-81
2022/11/27 00:51:04;;;;;;;;;;;;;;;4.66;100.00;102413.06;2098303;28;38734;-81
2022/11/27 00:52:06;;;;;;;;;;;;;;;4.67;100.00;102412.22;2098767;28;30944;-81
2022/11/27 00:53:08;;;;;;;;;;;;;;;4.64;100.00;102409.50;2098374;28;33046;-81
2022/11/27 00:54:09;;;;;;;;;;;;;;;4.61;100.00;102407.63;2100640;28;19921;-81
2022/11/27 00:55:11;;;;;;;;;;;;;;;4.60;100.00;102416.47;2101368;28;19990;-81
2022/11/27 00:56:16;;;;;;;;;;;;;;;4.58;100.00;102402.28;2098772;28;39738;-81
2022/11/27 00:57:18;;;;;;;;;;;;;;;4.58;100.00;102408.47;2100113;28;19927;-81
2022/11/27 00:58:19;;;;;;;;;;;;;;;4.55;100.00;102411.03;2099796;28;30623;-81
2022/11/27 00:59:21;;;;;;;;;;;;;;;4.55;100.00;102411.03;2099155;28;37249;-81
2022/11/27 01:00:23;;;;;;;;;;;;;;;4.54;100.00;102409.25;2100824;28;30584;-81
2022/11/27 01:01:27;;;;;;;;;;;;;;;4.51;100.00;102408.28;2100532;28;39474;-81
2022/11/27 01:02:29;;;;;;;;;;;;;;;4.49;100.00;102400.28;2101188;28;24915;-81
2022/11/27 01:03:30;;;;;;;;;;;;;;;4.45;100.00;102403.72;2100842;28;19928;-81
2022/11/27 01:04:32;;;;;;;;;;;;;;;4.46;100.00;102394.00;2098793;28;34210;-81
2022/11/27 01:05:35;;;;;;;;;;;;;;;4.44;100.00;102396.63;2099726;28;19928;-81
2022/11/27 01:06:37;;;;;;;;;;;;;;;4.44;100.00;102399.25;2099027;28;32678;-81
2022/11/27 01:07:39;;;;;;;;;;;;;;;4.40;100.00;102403.59;2097913;28;38618;-81
2022/11/27 01:08:41;;;;;;;;;;;;;;;4.38;100.00;102400.00;2097862;28;19928;-81
2022/11/27 01:09:43;;;;;;;;;;;;;;;4.39;100.00;102399.13;2098019;28;34424;-81
2022/11/27 01:10:51;;;;;;;;;;;;;;;4.40;100.00;102397.41;2098488;28;19928;-81
2022/11/27 01:11:55;;;;;;;;;;;;;;;4.38;100.00;102397.34;2098553;28;19982;-81
2022/11/27 01:12:56;;;;;;;;;;;;;;;4.37;100.00;102394.66;2097712;28;32329;-81
2022/11/27 01:14:01;;;;;;;;;;;;;;;4.35;100.00;102393.72;2097736;28;32272;-81
2022/11/27 01:15:03;;;;;;;;;;;;;;;4.35;100.00;102385.78;2098439;28;31510;-81
2022/11/27 01:16:11;;;;;;;;;;;;;;;4.34;100.00;102386.63;2100154;28;35327;-81
2022/11/27 01:17:13;;;;;;;;;;;;;;;4.34;100.00;102389.28;2098921;28;31215;-81
2022/11/27 01:18:14;;;;;;;;;;;;;;;4.32;100.00;102393.63;2097611;28;33285;-81
2022/11/27 01:19:16;;;;;;;;;;;;;;;4.28;100.00;102397.06;2097183;28;37026;-81
2022/11/27 01:20:17;;;;;;;;;;;;;;;4.26;100.00;102398.78;2097653;28;33262;-81
2022/11/27 01:21:20;;;;;;;;;;;;;;;4.25;100.00;102395.22;2097520;28;37528;-80
2022/11/27 01:22:22;;;;;;;;;;;;;;;4.21;100.00;102396.00;2098226;28;34381;-81
2022/11/27 01:23:24;;;;;;;;;;;;;;;4.21;100.00;102398.66;2097700;28;33664;-81
2022/11/27 01:24:25;;;;;;;;;;;;;;;4.19;100.00;102395.06;2097445;28;38031;-81
2022/11/27 01:25:27;;;;;;;;;;;;;;;4.16;100.00;102401.22;2097657;28;32493;-81
2022/11/27 01:26:29;;;;;;;;;;;;;;;4.17;100.00;102396.78;2097552;28;34681;-80
2022/11/27 01:27:30;;;;;;;;;;;;;;;4.15;100.00;102403.81;2097855;28;27939;-81
2022/11/27 01:28:33;;;;;;;;;;;;;;;4.12;100.00;102404.59;2097703;28;35126;-81
2022/11/27 01:29:35;;;;;;;;;;;;;;;4.08;100.00;102397.44;2097200;28;38598;-81
2022/11/27 01:30:37;;;;;;;;;;;;;;;4.12;100.00;102401.94;2097358;28;33458;-81
2022/11/27 01:31:41;;;;;;;;;;;;;;;4.07;100.00;102394.75;2097527;28;33699;-81
2022/11/27 01:32:43;;;;;;;;;;;;;;;4.04;100.00;102392.91;2097379;28;36079;-80
2022/11/27 01:33:45;;;;;;;;;;;;;;;4.04;100.00;102390.25;2097710;28;34249;-81
2022/11/27 01:34:47;;;;;;;;;;;;;;;4.01;100.00;102393.72;2097645;28;31831;-81
2022/11/27 01:35:56;;;;;;;;;;;;;;;4.00;100.00;102385.72;2098062;28;30025;-81
2022/11/27 01:36:57;;;;;;;;;;;;;;;3.99;100.00;102381.28;2098856;28;37598;-81
2022/11/27 01:37:59;;;;;;;;;;;;;;;3.96;100.00;102386.50;2099150;28;19924;-81
2022/11/27 01:39:01;;;;;;;;;;;;;;;3.95;100.00;102382.97;2097785;28;30735;-80
2022/11/27 01:40:03;;;;;;;;;;;;;;;3.94;100.00;102388.22;2097182;28;38031;-80
2022/11/27 01:41:11;;;;;;;;;;;;;;;3.89;100.00;102390.72;2097872;28;33653;-80
2022/11/27 01:42:13;;;;;;;;;;;;;;;3.84;100.00;102387.06;2098136;28;32347;-80
2022/11/27 01:43:15;;;;;;;;;;;;;;;3.84;100.00;102387.06;2097982;28;33495;-80
2022/11/27 01:44:22;;;;;;;;;;;;;;;3.83;100.00;102394.09;2098875;28;19927;-81
2022/11/27 01:45:26;;;;;;;;;;;;;;;3.78;100.00;102384.22;2096999;28;37677;-81
2022/11/27 01:46:33;;;;;;;;;;;;;;;3.76;100.00;102391.22;2097557;28;37264;-81
2022/11/27 01:47:42;;;;;;;;;;;;;;;3.74;100.00;102396.47;2096948;28;34627;-81
2022/11/27 01:48:45;;;;;;;;;;;;;;;3.69;100.00;102391.91;2097783;28;35011;-80
2022/11/27 01:49:52;;;;;;;;;;;;;;;3.66;100.00;102382.16;2097132;28;41937;-81
2022/11/27 01:50:53;;;;;;;;;;;;;;;3.69;100.00;102387.50;2097697;28;32855;-80
2022/11/27 01:51:57;;;;;;;;;;;;;;;3.68;100.00;102390.09;2097209;28;31821;-81
2022/11/27 01:53:08;;;;;;;;;;;;;;;3.68;100.00;102377.78;2097655;28;29621;-81
2022/11/27 01:54:11;;;;;;;;;;;;;;;3.68;100.00;102374.22;2097513;28;37094;-81
2022/11/27 01:55:24;;;;;;;;;;;;;;;3.66;100.00;102374.19;2097355;28;37784;-80
2022/11/27 01:56:27;;;;;;;;;;;;;;;3.65;100.00;102371.50;2097902;28;32136;-81
2022/11/27 01:57:35;;;;;;;;;;;;;;;3.62;100.00;102380.25;2097150;28;38072;-81
2022/11/27 01:58:38;;;;;;;;;;;;;;;3.55;100.00;102373.88;2097319;28;37073;-80
2022/11/27 01:59:41;;;;;;;;;;;;;;;3.53;100.00;102369.38;2097579;28;39006;-81
2022/11/27 02:00:43;;;;;;;;;;;;;;;3.47;100.00;102374.50;2097288;28;31393;-80
2022/11/27 02:01:44;;;;;;;;;;;;;;;3.43;100.00;102368.22;2097914;28;20632;-81
2022/11/27 02:02:46;;;;;;;;;;;;;;;3.38;100.00;102365.44;2097131;28;38762;-80
2022/11/27 02:03:47;;;;;;;;;;;;;;;3.42;100.00;102362.00;2097538;28;35546;-81
2022/11/27 02:04:49;;;;;;;;;;;;;;;3.49;100.00;102356.91;2097279;28;40703;-81
2022/11/27 02:05:51;;;;;;;;;;;;;;;3.46;100.00;102356.81;2097434;28;37988;-81
2022/11/27 02:06:56;;;;;;;;;;;;;;;3.42;100.00;102364.66;2097108;28;39056;-81
2022/11/27 02:08:02;;;;;;;;;;;;;;;3.40;100.00;102353.13;2097894;28;33992;-81
2022/11/27 02:09:03;;;;;;;;;;;;;;;3.38;100.00;102360.13;2097556;28;34707;-80
2022/11/27 02:10:06;;;;;;;;;;;;;;;3.38;100.00;102357.50;2097217;28;35751;-81
2022/11/27 02:11:16;;;;;;;;;;;;;;;3.35;100.00;102362.69;2097693;28;27596;-80
2022/11/27 02:12:27;;;;;;;;;;;;;;;3.31;100.00;102357.28;2097323;28;38756;-80
2022/11/27 02:13:56;;;;;;;;;;;;;;;3.31;100.00;102359.91;2097495;28;35685;-80
2022/11/27 02:15:09;;;;;;;;;;;;;;;3.34;100.00;102360.00;2098093;28;19912;-82
2022/11/27 02:16:42;;;;;;;;;;;;;;;3.25;100.00;102358.00;2097440;28;35468;-81
2022/11/27 02:18:23;;;;;;;;;;;;;;;3.24;100.00;102361.47;2098299;28;19928;-81
2022/11/27 02:19:55;;;;;;;;;;;;;;;3.22;100.00;102364.06;2071501;28;39567;-81
2022/11/27 02:21:23;;;;;;;;;;;;;;;3.18;100.00;102363.94;2062457;28;34482;-81
2022/11/27 02:22:37;;;;;;;;;;;;;;;3.13;100.00;102363.78;2092225;28;41340;-81
2022/11/27 02:23:58;;;;;;;;;;;;;;;3.14;100.00;102362.03;2097104;28;40190;-81
2022/11/27 02:25:36;;;;;;;;;;;;;;;3.18;100.00;102363.94;2097385;28;33697;-81
2022/11/27 02:26:56;;;;;;;;;;;;;;;3.14;100.00;102367.34;2097458;28;34003;-81
2022/11/27 02:28:23;;;;;;;;;;;;;;;3.14;100.00;102357.66;2097553;28;35528;-81
2022/11/27 02:29:30;;;;;;;;;;;;;;;3.10;100.00;102355.75;2097309;28;38831;-81
2022/11/27 02:30:39;;;;;;;;;;;;;;;3.09;100.00;102353.06;2097403;28;36095;-81
2022/11/27 02:31:50;;;;;;;;;;;;;;;3.10;100.00;102363.69;2097364;28;34903;-81
2022/11/27 02:32:58;;;;;;;;;;;;;;;3.06;100.00;102367.09;2097246;28;36555;-81
2022/11/27 02:34:13;;;;;;;;;;;;;;;3.00;100.00;102370.47;2097150;28;38107;-81
2022/11/27 02:35:30;;;;;;;;;;;;;;;2.98;100.00;102369.53;2097432;28;33212;-81
2022/11/27 02:36:34;;;;;;;;;;;;;;;2.97;100.00;102377.41;2097328;28;34896;-81
2022/11/27 02:37:49;;;;;;;;;;;;;;;2.98;100.00;102368.59;2096694;28;40806;-81
2022/11/27 02:38:58;;;;;;;;;;;;;;;2.96;100.00;102368.59;2097458;28;40347;-81
2022/11/27 02:40:16;;;;;;;;;;;;;;;2.93;100.00;102362.28;2097522;28;19927;-80
2022/11/27 02:41:25;;;;;;;;;;;;;;;2.93;100.00;102365.81;2097570;28;34815;-82
2022/11/27 02:42:32;;;;;;;;;;;;;;;2.89;100.00;102363.94;2097401;28;32575;-81
2022/11/27 02:43:37;;;;;;;;;;;;;;;2.88;100.00;102361.25;2097288;28;37986;-81
2022/11/27 02:44:45;;;;;;;;;;;;;;;2.87;100.00;102365.63;2097301;28;39117;-81
2022/11/27 02:45:50;;;;;;;;;;;;;;;2.83;100.00;102367.25;2096997;28;34545;-81
2022/11/27 02:46:53;;;;;;;;;;;;;;;2.85;100.00;102368.25;2097276;28;28617;-81
2022/11/27 02:47:56;;;;;;;;;;;;;;;2.79;100.00;102367.13;2097500;28;20079;-81
2022/11/27 02:49:04;;;;;;;;;;;;;;;2.76;100.00;102356.44;2097462;28;34284;-81
2022/11/27 02:50:16;;;;;;;;;;;;;;;2.77;100.00;102358.25;2098221;28;20798;-81
2022/11/27 02:51:21;;;;;;;;;;;;;;;2.73;100.00;102353.69;2098607;28;20774;-81
2022/11/27 02:52:26;;;;;;;;;;;;;;;2.72;100.00;102351.91;2097720;28;40369;-81
2022/11/27 02:53:36;;;;;;;;;;;;;;;2.74;100.00;102355.50;2101117;28;37022;-81
2022/11/27 02:54:41;;;;;;;;;;;;;;;2.69;100.00;102352.69;2099887;28;37656;-81
2022/11/27 02:55:45;;;;;;;;;;;;;;;2.72;100.00;102362.50;2099001;28;33640;-81
2022/11/27 02:56:50;;;;;;;;;;;;;;;2.74;100.00;102364.34;2099019;28;19924;-81
2022/11/27 02:57:55;;;;;;;;;;;;;;;2.75;100.00;102354.69;2097938;28;38626;-81
2022/11/27 02:59:01;;;;;;;;;;;;;;;2.72;100.00;102355.47;2098473;28;30090;-81
2022/11/27 03:00:03;;;;;;;;;;;;;;;2.72;100.00;102349.28;2097092;28;26007;-81
2022/11/27 03:01:09;;;;;;;;;;;;;;;2.71;100.00;102350.09;2103323;28;38573;-80
2022/11/27 03:02:17;;;;;;;;;;;;;;;2.75;100.00;102344.09;2097785;28;21588;-81
2022/11/27 03:03:24;;;;;;;;;;;;;;;2.71;100.00;102352.75;2097264;28;29308;-81
2022/11/27 03:04:33;;;;;;;;;;;;;;;2.67;100.00;102355.31;2097175;28;35328;-80
2022/11/27 03:05:41;;;;;;;;;;;;;;;2.65;100.00;102354.34;2097795;28;20051;-81
2022/11/27 03:06:48;;;;;;;;;;;;;;;2.67;100.00;102350.03;2097618;28;33539;-81
2022/11/27 03:08:04;;;;;;;;;;;;;;;2.73;100.00;102348.41;2097582;28;31945;-81
2022/11/27 03:09:24;;;;;;;;;;;;;;;2.72;100.00;102347.53;2098516;28;19920;-82
2022/11/27 03:10:33;;;;;;;;;;;;;;;2.71;100.00;102340.47;2096813;28;42173;-81
2022/11/27 03:11:36;;;;;;;;;;;;;;;2.72;100.00;102338.69;2097024;28;34158;-81
2022/11/27 03:12:37;;;;;;;;;;;;;;;2.68;100.00;102343.00;2097439;28;33241;-81
2022/11/27 03:13:43;;;;;;;;;;;;;;;2.66;100.00;102337.66;2097497;28;19925;-81
2022/11/27 03:14:46;;;;;;;;;;;;;;;2.69;100.00;102339.47;2096731;28;39127;-81
2022/11/27 03:16:15;;;;;;;;;;;;;;;2.73;100.00;102338.75;2097262;28;20758;-81
2022/11/27 03:17:24;;;;;;;;;;;;;;;2.71;100.00;102332.53;2096367;28;39261;-81
2022/11/27 03:18:55;;;;;;;;;;;;;;;2.68;100.00;102333.31;2097066;28;32273;-81
2022/11/27 03:20:06;;;;;;;;;;;;;;;2.70;100.00;102322.78;2097041;28;33261;-80
2022/11/27 03:21:22;;;;;;;;;;;;;;;2.68;100.00;102322.72;2096838;28;37922;-80
2022/11/27 03:22:26;;;;;;;;;;;;;;;2.68;100.00;102325.38;2097824;28;19913;-80
2022/11/27 03:23:28;;;;;;;;;;;;;;;2.66;100.00;102318.25;2096635;28;36249;-80
2022/11/27 03:24:33;;;;;;;;;;;;;;;2.65;100.00;102321.72;2097657;28;30445;-81
2022/11/27 03:25:35;;;;;;;;;;;;;;;2.64;100.00;102314.66;2096861;28;32146;-81
2022/11/27 03:26:38;;;;;;;;;;;;;;;2.71;100.00;102315.72;2097255;28;28591;-81
2022/11/27 03:27:46;;;;;;;;;;;;;;;2.64;100.00;102318.19;2096832;28;29518;-80
2022/11/27 03:28:50;;;;;;;;;;;;;;;2.58;100.00;102328.56;2097125;28;36493;-80
2022/11/27 03:29:56;;;;;;;;;;;;;;;2.52;100.00;102323.09;2096390;28;33938;-81
2022/11/27 03:31:00;;;;;;;;;;;;;;;2.51;100.00;102326.56;2097092;28;30432;-81
2022/11/27 03:32:03;;;;;;;;;;;;;;;2.52;100.00;102319.56;2095965;28;36571;-80
2022/11/27 03:33:05;;;;;;;;;;;;;;;2.44;100.00;102327.22;2096967;28;30230;-81
2022/11/27 03:34:07;;;;;;;;;;;;;;;2.42;100.00;102326.28;2096851;28;33653;-80
2022/11/27 03:35:13;;;;;;;;;;;;;;;2.42;100.00;102319.25;2097148;28;29431;-80
2022/11/27 03:36:18;;;;;;;;;;;;;;;2.41;100.00;102321.84;2097327;28;19919;-80
2022/11/27 03:37:21;;;;;;;;;;;;;;;2.41;100.00;102325.38;2096686;28;35664;-80
2022/11/27 03:38:23;;;;;;;;;;;;;;;2.38;100.00;102321.75;2097564;28;19927;-81
2022/11/27 03:39:25;;;;;;;;;;;;;;;2.36;100.00;102323.44;2096646;28;38267;-81
2022/11/27 03:40:46;;;;;;;;;;;;;;;2.33;100.00;102320.69;2097437;28;19920;-81
2022/11/27 03:42:15;;;;;;;;;;;;;;;2.31;100.00;102323.28;2097817;28;19916;-81
2022/11/27 03:43:30;;;;;;;;;;;;;;;2.31;100.00;102312.69;2097059;28;34818;-81
2022/11/27 03:44:56;;;;;;;;;;;;;;;2.33;100.00;102318.94;2097065;28;31334;-81
2022/11/27 03:46:10;;;;;;;;;;;;;;;2.34;100.00;102320.75;2096485;28;38441;-82
2022/11/27 03:47:30;;;;;;;;;;;;;;;2.32;100.00;102319.78;2097973;28;19921;-81
2022/11/27 03:48:53;;;;;;;;;;;;;;;2.28;100.00;102312.63;2096998;28;36167;-81
2022/11/27 03:50:31;;;;;;;;;;;;;;;2.22;100.00;102310.66;2097276;28;19924;-81
2022/11/27 03:51:33;;;;;;;;;;;;;;;2.29;100.00;102314.41;2097125;28;36196;-80
2022/11/27 03:52:41;;;;;;;;;;;;;;;2.37;100.00;102310.28;2097113;28;19952;-79
2022/11/27 03:54:09;;;;;;;;;;;;;;;2.41;100.00;102309.53;2097124;28;37031;-80
2022/11/27 03:55:23;;;;;;;;;;;;;;;2.45;100.00;102302.59;2096988;28;19929;-80
2022/11/27 03:56:49;;;;;;;;;;;;;;;2.44;100.00;102304.34;2096536;28;40680;-80
2022/11/27 03:57:59;;;;;;;;;;;;;;;2.43;100.00;102301.66;2096751;28;33593;-80
2022/11/27 03:59:07;;;;;;;;;;;;;;;2.48;100.00;102302.69;2096307;28;35091;-80
2022/11/27 04:00:12;;;;;;;;;;;;;;;2.45;100.00;102302.59;2097321;28;19924;-80
2022/11/27 04:01:17;;;;;;;;;;;;;;;2.48;100.00;102298.28;2096182;28;34440;-80
2022/11/27 04:02:30;;;;;;;;;;;;;;;2.46;100.00;102299.13;2096695;28;35982;-79
2022/11/27 04:03:32;;;;;;;;;;;;;;;2.40;100.00;102298.91;2096680;28;37380;-79
2022/11/27 04:04:34;;;;;;;;;;;;;;;2.39;100.00;102297.13;2096679;28;32511;-79
2022/11/27 04:05:35;;;;;;;;;;;;;;;2.38;100.00;102298.84;2096538;28;36572;-79
2022/11/27 04:06:37;;;;;;;;;;;;;;;2.37;100.00;102301.44;2096653;28;36150;-81
2022/11/27 04:07:39;;;;;;;;;;;;;;;2.32;100.00;102295.13;2096726;28;32635;-79
2022/11/27 04:08:41;;;;;;;;;;;;;;;2.40;100.00;102305.06;2096411;28;39836;-79
2022/11/27 04:09:43;;;;;;;;;;;;;;;2.41;100.00;102303.34;2096798;28;31776;-79
2022/11/27 04:10:45;;;;;;;;;;;;;;;2.33;100.00;102299.53;2096753;28;33786;-78
2022/11/27 04:11:47;;;;;;;;;;;;;;;2.31;100.00;102298.59;2096506;28;32598;-80
2022/11/27 04:12:48;;;;;;;;;;;;;;;2.26;100.00;102294.06;2096951;28;33016;-79
2022/11/27 04:13:51;;;;;;;;;;;;;;;2.29;100.00;102294.16;2097063;28;24130;-81
2022/11/27 04:14:55;;;;;;;;;;;;;;;2.25;100.00;102294.91;2096653;28;41773;-79
2022/11/27 04:16:00;;;;;;;;;;;;;;;2.31;100.00;102298.59;2095776;28;32061;-79
2022/11/27 04:17:02;;;;;;;;;;;;;;;2.33;100.00;102292.50;2097028;28;37619;-80
2022/11/27 04:18:04;;;;;;;;;;;;;;;2.36;100.00;102294.38;2096710;28;31896;-79
2022/11/27 04:19:07;;;;;;;;;;;;;;;2.33;100.00;102302.19;2097151;28;19971;-79
2022/11/27 04:20:09;;;;;;;;;;;;;;;2.35;100.00;102289.91;2096431;28;38553;-79
2022/11/27 04:21:11;;;;;;;;;;;;;;;2.31;100.00;102283.63;2096479;28;28522;-79
2022/11/27 04:22:13;;;;;;;;;;;;;;;2.31;100.00;102283.63;2096903;28;30351;-80
2022/11/27 04:23:14;;;;;;;;;;;;;;;2.36;100.00;102286.44;2096685;28;39438;-80
2022/11/27 04:24:16;;;;;;;;;;;;;;;2.32;100.00;102282.78;2095918;28;39768;-79
2022/11/27 04:25:17;;;;;;;;;;;;;;;2.29;100.00;102288.84;2096858;28;34933;-81
2022/11/27 04:26:19;;;;;;;;;;;;;;;2.29;100.00;102273.00;2096161;28;41935;-81
2022/11/27 04:27:20;;;;;;;;;;;;;;;2.29;100.00;102275.66;2097631;28;20599;-80
2022/11/27 04:28:22;;;;;;;;;;;;;;;2.32;100.00;102258.13;2096499;28;39638;-78
2022/11/27 04:29:23;;;;;;;;;;;;;;;2.37;100.00;102272.34;2096721;28;40073;-79
2022/11/27 04:30:25;;;;;;;;;;;;;;;2.34;100.00;102273.16;2096802;28;29385;-79
2022/11/27 04:31:27;;;;;;;;;;;;;;;2.31;100.00;102280.09;2097090;28;20798;-79
2022/11/27 04:32:29;;;;;;;;;;;;;;;2.29;100.00;102275.66;2096388;28;40011;-80
2022/11/27 04:33:30;;;;;;;;;;;;;;;2.31;100.00;102274.81;2096667;28;31283;-79
2022/11/27 04:34:32;;;;;;;;;;;;;;;2.29;100.00;102264.19;2096331;28;42320;-80
2022/11/27 04:35:34;;;;;;;;;;;;;;;2.27;100.00;102264.13;2097840;28;19927;-80
2022/11/27 04:36:35;;;;;;;;;;;;;;;2.26;100.00;102267.66;2095939;28;38683;-79
2022/11/27 04:37:40;;;;;;;;;;;;;;;2.25;100.00;102268.47;2096593;28;33775;-80
2022/11/27 04:38:41;;;;;;;;;;;;;;;2.23;100.00;102264.91;2096685;28;37196;-79
2022/11/27 04:39:43;;;;;;;;;;;;;;;2.23;100.00;102264.91;2096620;28;34914;-79
2022/11/27 04:40:44;;;;;;;;;;;;;;;2.20;100.00;102256.84;2096174;28;39996;-79
2022/11/27 04:41:46;;;;;;;;;;;;;;;2.20;100.00;102258.59;2096332;28;33144;-79
2022/11/27 04:42:50;;;;;;;;;;;;;;;2.18;100.00;102261.19;2096382;28;40583;-79
2022/11/27 04:43:52;;;;;;;;;;;;;;;2.20;100.00;102266.53;2096523;28;37363;-79
2022/11/27 04:44:56;;;;;;;;;;;;;;;2.20;100.00;102269.19;2097675;28;38271;-79
2022/11/27 04:45:57;;;;;;;;;;;;;;;2.16;100.00;102260.25;2097230;28;38739;-79
2022/11/27 04:46:59;;;;;;;;;;;;;;;2.21;100.00;102266.59;2097425;28;39557;-81
2022/11/27 04:48:01;;;;;;;;;;;;;;;2.20;100.00;102259.50;2097839;28;36422;-79
2022/11/27 04:49:02;;;;;;;;;;;;;;;2.22;100.00;102247.22;2097948;28;33981;-78
2022/11/27 04:50:05;;;;;;;;;;;;;;;2.19;100.00;102247.16;2098122;28;31476;-79
2022/11/27 04:51:06;;;;;;;;;;;;;;;2.21;100.00;102242.81;2097766;28;39817;-78
2022/11/27 04:52:09;;;;;;;;;;;;;;;2.20;100.00;102246.28;2098271;28;32582;-78
2022/11/27 04:53:11;;;;;;;;;;;;;;;2.15;100.00;102237.31;2097268;28;36295;-79
2022/11/27 04:54:13;;;;;;;;;;;;;;;2.14;100.00;102232.00;2097990;28;33628;-78
2022/11/27 04:55:17;;;;;;;;;;;;;;;2.11;100.00;102232.78;2098144;28;19924;-78
2022/11/27 04:56:18;;;;;;;;;;;;;;;2.16;100.00;102231.19;2098308;28;35809;-78
2022/11/27 04:57:20;;;;;;;;;;;;;;;2.16;100.00;102228.56;2097893;28;29002;-78
2022/11/27 04:58:21;;;;;;;;;;;;;;;2.11;100.00;102232.78;2098247;28;22385;-78
2022/11/27 04:59:23;;;;;;;;;;;;;;;2.14;100.00;102234.66;2097688;28;41504;-81
2022/11/27 05:00:24;;;;;;;;;;;;;;;2.11;100.00;102232.78;2098514;28;19920;-78
2022/11/27 05:01:26;;;;;;;;;;;;;;;2.06;100.00;102226.44;2096928;28;41600;-81
2022/11/27 05:02:27;;;;;;;;;;;;;;;2.07;100.00;102225.63;2098171;28;31938;-79
2022/11/27 05:03:29;;;;;;;;;;;;;;;2.07;100.00;102220.31;2097942;28;31715;-79
2022/11/27 05:04:31;;;;;;;;;;;;;;;2.15;100.00;102216.16;2097605;28;39903;-78
2022/11/27 05:05:33;;;;;;;;;;;;;;;2.14;100.00;102211.75;2097495;28;36191;-79
2022/11/27 05:06:34;;;;;;;;;;;;;;;2.13;100.00;102215.22;2098482;28;21139;-79
2022/11/27 05:07:38;;;;;;;;;;;;;;;2.14;100.00;102216.16;2098346;28;19924;-79
2022/11/27 05:08:40;;;;;;;;;;;;;;;2.13;100.00;102209.06;2098030;28;35709;-79
2022/11/27 05:09:41;;;;;;;;;;;;;;;2.12;100.00;102197.59;2097209;28;35994;-79
2022/11/27 05:10:43;;;;;;;;;;;;;;;2.08;100.00;102211.53;2097875;28;39848;-79
2022/11/27 05:11:45;;;;;;;;;;;;;;;2.08;100.00;102208.91;2097727;28;32797;-79
2022/11/27 05:12:46;;;;;;;;;;;;;;;2.06;100.00;102213.25;2098000;28;19924;-79
2022/11/27 05:13:48;;;;;;;;;;;;;;;2.07;100.00;102209.75;2097650;28;40063;-80
2022/11/27 05:14:50;;;;;;;;;;;;;;;2.06;100.00;102218.53;2097926;28;34050;-79
2022/11/27 05:15:51;;;;;;;;;;;;;;;2.07;100.00;102215.03;2096956;28;36321;-79
2022/11/27 05:16:56;;;;;;;;;;;;;;;2.02;100.00;102212.25;2098669;28;20760;-79
2022/11/27 05:17:57;;;;;;;;;;;;;;;2.04;100.00;102221.09;2097440;28;36282;-79
2022/11/27 05:19:02;;;;;;;;;;;;;;;2.04;100.00;102214.94;2098512;28;33991;-80
2022/11/27 05:20:04;;;;;;;;;;;;;;;2.05;100.00;102222.91;2097541;28;31898;-79
2022/11/27 05:21:07;;;;;;;;;;;;;;;2.06;100.00;102215.88;2097976;28;30316;-79
2022/11/27 05:22:08;;;;;;;;;;;;;;;1.98;100.00;102215.63;2097517;28;35028;-79
2022/11/27 05:23:10;;;;;;;;;;;;;;;2.05;100.00;102207.06;2097583;28;40000;-78
2022/11/27 05:24:12;;;;;;;;;;;;;;;2.04;100.00;102199.09;2097492;28;33524;-78
2022/11/27 05:25:14;;;;;;;;;;;;;;;2.06;100.00;102213.25;2097767;28;32436;-78
2022/11/27 05:26:15;;;;;;;;;;;;;;;2.01;100.00;102209.53;2097243;28;38977;-78
2022/11/27 05:27:19;;;;;;;;;;;;;;;1.95;100.00;102210.25;2097782;28;24242;-78
2022/11/27 05:28:21;;;;;;;;;;;;;;;1.94;100.00;102204.91;2098093;28;19927;-78
2022/11/27 05:29:27;;;;;;;;;;;;;;;1.94;100.00;102207.56;2097599;28;37523;-80
2022/11/27 05:30:28;;;;;;;;;;;;;;;1.90;100.00;102207.47;2097337;28;36965;-78
2022/11/27 05:31:30;;;;;;;;;;;;;;;1.93;100.00;102201.38;2097450;28;30748;-79
2022/11/27 05:32:32;;;;;;;;;;;;;;;1.95;100.00;102204.06;2097439;28;33551;-78
2022/11/27 05:33:33;;;;;;;;;;;;;;;1.94;100.00;102207.56;2097619;28;34031;-79
2022/11/27 05:34:35;;;;;;;;;;;;;;;1.96;100.00;102211.16;2097443;28;32969;-79
2022/11/27 05:35:36;;;;;;;;;;;;;;;1.93;100.00;102206.66;2088671;28;36830;-79